sensor_id;sensor_type;location;lat;lon;timestamp;P1;durP1;ratioP1;P2;durP2;ratioP2
66567;SDS011;53422;49.296;6.900;2022-11-20T00:02:18;10.43;;;4.50;;
66567;SDS011;53422;49.296;6.900;2022-11-20T00:04:44;8.68;;;3.85;;
66567;SDS011;53422;49.296;6.900;2022-11-20T00:07:09;8.15;;;3.90;;
66567;SDS011;53422;49.296;6.900;2022-11-20T00:09:35;6.85;;;3.45;;
66567;SDS011;53422;49.296;6.900;2022-11-20T00:12:00;11.48;;;4.00;;
66567;SDS011;53422;49.296;6.900;2022-11-20T00:14:26;8.75;;;3.70;;
66567;SDS011;53422;49.296;6.900;2022-11-20T00:16:52;9.43;;;3.95;;
66567;SDS011;53422;49.296;6.900;2022-11-20T00:19:17;8.00;;;3.40;;
66567;SDS011;53422;49.296;6.900;2022-11-20T00:21:43;10.05;;;3.50;;
66567;SDS011;53422;49.296;6.900;2022-11-20T00:24:08;8.60;;;3.42;;
66567;SDS011;53422;49.296;6.900;2022-11-20T00:26:35;8.77;;;3.63;;
66567;SDS011;53422;49.296;6.900;2022-11-20T00:29:01;9.55;;;4.07;;
66567;SDS011;53422;49.296;6.900;2022-11-20T00:31:27;11.38;;;4.57;;
66567;SDS011;53422;49.296;6.900;2022-11-20T00:33:53;9.20;;;4.15;;
66567;SDS011;53422;49.296;6.900;2022-11-20T00:36:20;10.13;;;3.85;;
66567;SDS011;53422;49.296;6.900;2022-11-20T00:38:50;11.95;;;3.50;;
66567;SDS011;53422;49.296;6.900;2022-11-20T00:41:17;10.48;;;3.58;;
66567;SDS011;53422;49.296;6.900;2022-11-20T00:43:43;11.32;;;3.95;;
66567;SDS011;53422;49.296;6.900;2022-11-20T00:46:18;8.82;;;3.88;;
66567;SDS011;53422;49.296;6.900;2022-11-20T00:48:46;9.80;;;3.65;;
66567;SDS011;53422;49.296;6.900;2022-11-20T00:51:12;7.45;;;3.60;;
66567;SDS011;53422;49.296;6.900;2022-11-20T00:53:43;8.50;;;3.70;;
66567;SDS011;53422;49.296;6.900;2022-11-20T00:56:10;8.15;;;3.60;;
66567;SDS011;53422;49.296;6.900;2022-11-20T00:58:37;6.90;;;3.35;;
66567;SDS011;53422;49.296;6.900;2022-11-20T01:01:38;7.90;;;3.20;;
66567;SDS011;53422;49.296;6.900;2022-11-20T01:03:57;5.50;;;2.38;;
66567;SDS011;53422;49.296;6.900;2022-11-20T01:06:25;8.82;;;3.13;;
66567;SDS011;53422;49.296;6.900;2022-11-20T01:08:53;7.47;;;2.88;;
66567;SDS011;53422;49.296;6.900;2022-11-20T01:13:48;7.28;;;2.83;;
66567;SDS011;53422;49.296;6.900;2022-11-20T01:16:16;7.47;;;3.15;;
66567;SDS011;53422;49.296;6.900;2022-11-20T01:18:46;8.98;;;3.13;;
66567;SDS011;53422;49.296;6.900;2022-11-20T01:21:16;8.10;;;3.33;;
66567;SDS011;53422;49.296;6.900;2022-11-20T01:23:45;6.68;;;3.05;;
66567;SDS011;53422;49.296;6.900;2022-11-20T01:26:15;11.40;;;3.10;;
66567;SDS011;53422;49.296;6.900;2022-11-20T01:28:42;6.95;;;2.72;;
66567;SDS011;53422;49.296;6.900;2022-11-20T01:33:42;7.50;;;3.22;;
66567;SDS011;53422;49.296;6.900;2022-11-20T01:36:09;9.52;;;3.03;;
66567;SDS011;53422;49.296;6.900;2022-11-20T01:38:35;5.38;;;2.35;;
66567;SDS011;53422;49.296;6.900;2022-11-20T01:41:01;7.65;;;3.13;;
66567;SDS011;53422;49.296;6.900;2022-11-20T01:43:27;7.88;;;3.33;;
66567;SDS011;53422;49.296;6.900;2022-11-20T01:51:39;6.32;;;2.75;;
66567;SDS011;53422;49.296;6.900;2022-11-20T01:54:12;4.38;;;2.30;;
66567;SDS011;53422;49.296;6.900;2022-11-20T01:56:41;5.82;;;2.78;;
66567;SDS011;53422;49.296;6.900;2022-11-20T01:59:09;8.25;;;3.28;;
66567;SDS011;53422;49.296;6.900;2022-11-20T02:01:38;5.97;;;2.72;;
66567;SDS011;53422;49.296;6.900;2022-11-20T02:04:04;7.80;;;2.92;;
66567;SDS011;53422;49.296;6.900;2022-11-20T02:06:34;6.03;;;2.72;;
66567;SDS011;53422;49.296;6.900;2022-11-20T02:09:05;7.68;;;2.92;;
66567;SDS011;53422;49.296;6.900;2022-11-20T02:11:31;4.60;;;2.22;;
66567;SDS011;53422;49.296;6.900;2022-11-20T02:13:56;6.00;;;2.83;;
66567;SDS011;53422;49.296;6.900;2022-11-20T02:16:25;6.28;;;2.72;;
66567;SDS011;53422;49.296;6.900;2022-11-20T02:18:54;6.30;;;2.38;;
66567;SDS011;53422;49.296;6.900;2022-11-20T02:21:39;7.32;;;3.60;;
66567;SDS011;53422;49.296;6.900;2022-11-20T02:24:11;6.35;;;2.25;;
66567;SDS011;53422;49.296;6.900;2022-11-20T02:29:15;5.32;;;2.60;;
66567;SDS011;53422;49.296;6.900;2022-11-20T02:31:44;6.15;;;2.47;;
66567;SDS011;53422;49.296;6.900;2022-11-20T02:34:10;6.95;;;2.85;;
66567;SDS011;53422;49.296;6.900;2022-11-20T02:36:36;8.77;;;2.58;;
66567;SDS011;53422;49.296;6.900;2022-11-20T02:39:04;6.07;;;2.45;;
66567;SDS011;53422;49.296;6.900;2022-11-20T02:41:37;6.22;;;2.80;;
66567;SDS011;53422;49.296;6.900;2022-11-20T02:44:03;5.65;;;2.63;;
66567;SDS011;53422;49.296;6.900;2022-11-20T02:46:30;4.38;;;1.90;;
66567;SDS011;53422;49.296;6.900;2022-11-20T02:48:56;6.00;;;2.53;;
66567;SDS011;53422;49.296;6.900;2022-11-20T02:51:22;6.82;;;2.53;;
66567;SDS011;53422;49.296;6.900;2022-11-20T02:53:48;6.15;;;2.55;;
66567;SDS011;53422;49.296;6.900;2022-11-20T02:56:14;4.75;;;2.38;;
66567;SDS011;53422;49.296;6.900;2022-11-20T02:58:40;4.38;;;2.20;;
66567;SDS011;53422;49.296;6.900;2022-11-20T03:01:05;3.90;;;1.92;;
66567;SDS011;53422;49.296;6.900;2022-11-20T03:03:31;4.10;;;1.98;;
66567;SDS011;53422;49.296;6.900;2022-11-20T03:05:58;5.15;;;2.58;;
66567;SDS011;53422;49.296;6.900;2022-11-20T03:08:24;4.32;;;2.00;;
66567;SDS011;53422;49.296;6.900;2022-11-20T03:10:50;4.15;;;1.92;;
66567;SDS011;53422;49.296;6.900;2022-11-20T03:13:15;4.28;;;2.22;;
66567;SDS011;53422;49.296;6.900;2022-11-20T03:15:41;4.32;;;2.78;;
66567;SDS011;53422;49.296;6.900;2022-11-20T03:18:07;4.50;;;2.40;;
66567;SDS011;53422;49.296;6.900;2022-11-20T03:20:33;7.35;;;1.60;;
66567;SDS011;53422;49.296;6.900;2022-11-20T03:22:59;4.65;;;2.05;;
66567;SDS011;53422;49.296;6.900;2022-11-20T03:25:25;4.97;;;2.22;;
66567;SDS011;53422;49.296;6.900;2022-11-20T03:27:50;7.68;;;2.35;;
66567;SDS011;53422;49.296;6.900;2022-11-20T03:30:17;5.07;;;2.10;;
66567;SDS011;53422;49.296;6.900;2022-11-20T03:32:42;4.20;;;2.10;;
66567;SDS011;53422;49.296;6.900;2022-11-20T03:35:08;4.00;;;2.05;;
66567;SDS011;53422;49.296;6.900;2022-11-20T03:37:35;5.47;;;2.25;;
66567;SDS011;53422;49.296;6.900;2022-11-20T03:40:00;5.00;;;2.10;;
66567;SDS011;53422;49.296;6.900;2022-11-20T03:42:26;3.90;;;2.10;;
66567;SDS011;53422;49.296;6.900;2022-11-20T03:45:10;4.22;;;1.95;;
66567;SDS011;53422;49.296;6.900;2022-11-20T03:47:35;4.63;;;2.00;;
66567;SDS011;53422;49.296;6.900;2022-11-20T03:50:01;5.30;;;2.30;;
66567;SDS011;53422;49.296;6.900;2022-11-20T03:52:27;6.18;;;1.90;;
66567;SDS011;53422;49.296;6.900;2022-11-20T03:54:53;3.35;;;1.58;;
66567;SDS011;53422;49.296;6.900;2022-11-20T03:57:18;3.22;;;1.75;;
66567;SDS011;53422;49.296;6.900;2022-11-20T03:59:44;3.47;;;2.10;;
66567;SDS011;53422;49.296;6.900;2022-11-20T04:02:09;4.55;;;1.92;;
66567;SDS011;53422;49.296;6.900;2022-11-20T04:04:35;4.22;;;2.20;;
66567;SDS011;53422;49.296;6.900;2022-11-20T04:07:00;3.42;;;1.45;;
66567;SDS011;53422;49.296;6.900;2022-11-20T04:09:26;3.90;;;1.75;;
66567;SDS011;53422;49.296;6.900;2022-11-20T04:11:52;3.78;;;1.65;;
66567;SDS011;53422;49.296;6.900;2022-11-20T04:14:17;4.50;;;1.98;;
66567;SDS011;53422;49.296;6.900;2022-11-20T04:16:43;4.97;;;1.90;;
66567;SDS011;53422;49.296;6.900;2022-11-20T04:19:10;4.03;;;1.70;;
66567;SDS011;53422;49.296;6.900;2022-11-20T04:21:37;4.75;;;1.73;;
66567;SDS011;53422;49.296;6.900;2022-11-20T04:24:03;3.35;;;1.48;;
66567;SDS011;53422;49.296;6.900;2022-11-20T04:26:29;3.40;;;1.92;;
66567;SDS011;53422;49.296;6.900;2022-11-20T04:28:56;3.88;;;1.85;;
66567;SDS011;53422;49.296;6.900;2022-11-20T04:31:23;3.53;;;1.75;;
66567;SDS011;53422;49.296;6.900;2022-11-20T04:33:51;4.57;;;1.88;;
66567;SDS011;53422;49.296;6.900;2022-11-20T04:36:18;3.55;;;1.90;;
66567;SDS011;53422;49.296;6.900;2022-11-20T04:38:55;4.25;;;1.95;;
66567;SDS011;53422;49.296;6.900;2022-11-20T04:41:27;3.97;;;1.80;;
66567;SDS011;53422;49.296;6.900;2022-11-20T04:43:56;5.00;;;1.98;;
66567;SDS011;53422;49.296;6.900;2022-11-20T04:46:28;4.05;;;1.83;;
66567;SDS011;53422;49.296;6.900;2022-11-20T04:48:55;6.75;;;2.13;;
66567;SDS011;53422;49.296;6.900;2022-11-20T04:51:21;6.63;;;2.13;;
66567;SDS011;53422;49.296;6.900;2022-11-20T04:53:47;3.70;;;2.15;;
66567;SDS011;53422;49.296;6.900;2022-11-20T04:56:13;7.32;;;2.47;;
66567;SDS011;53422;49.296;6.900;2022-11-20T04:58:39;4.03;;;2.28;;
66567;SDS011;53422;49.296;6.900;2022-11-20T05:03:31;4.90;;;2.38;;
66567;SDS011;53422;49.296;6.900;2022-11-20T05:06:01;6.30;;;2.33;;
66567;SDS011;53422;49.296;6.900;2022-11-20T05:08:28;5.45;;;2.42;;
66567;SDS011;53422;49.296;6.900;2022-11-20T05:10:58;6.68;;;2.60;;
66567;SDS011;53422;49.296;6.900;2022-11-20T05:13:26;4.55;;;2.03;;
66567;SDS011;53422;49.296;6.900;2022-11-20T05:15:52;8.73;;;2.45;;
66567;SDS011;53422;49.296;6.900;2022-11-20T05:18:17;5.35;;;2.47;;
66567;SDS011;53422;49.296;6.900;2022-11-20T05:20:43;5.32;;;2.25;;
66567;SDS011;53422;49.296;6.900;2022-11-20T05:23:08;4.93;;;2.08;;
66567;SDS011;53422;49.296;6.900;2022-11-20T05:25:34;4.75;;;2.15;;
66567;SDS011;53422;49.296;6.900;2022-11-20T05:27:59;4.18;;;1.98;;
66567;SDS011;53422;49.296;6.900;2022-11-20T05:30:25;5.70;;;2.42;;
66567;SDS011;53422;49.296;6.900;2022-11-20T05:32:51;4.80;;;2.20;;
66567;SDS011;53422;49.296;6.900;2022-11-20T05:35:16;4.72;;;2.22;;
66567;SDS011;53422;49.296;6.900;2022-11-20T05:37:42;5.85;;;2.83;;
66567;SDS011;53422;49.296;6.900;2022-11-20T05:40:07;7.65;;;2.30;;
66567;SDS011;53422;49.296;6.900;2022-11-20T05:42:34;5.95;;;3.15;;
66567;SDS011;53422;49.296;6.900;2022-11-20T05:45:01;8.82;;;2.83;;
66567;SDS011;53422;49.296;6.900;2022-11-20T05:47:28;6.95;;;2.75;;
66567;SDS011;53422;49.296;6.900;2022-11-20T05:49:57;6.35;;;3.03;;
66567;SDS011;53422;49.296;6.900;2022-11-20T05:52:23;6.13;;;3.13;;
66567;SDS011;53422;49.296;6.900;2022-11-20T05:54:48;3.72;;;1.92;;
66567;SDS011;53422;49.296;6.900;2022-11-20T05:57:14;6.55;;;2.45;;
66567;SDS011;53422;49.296;6.900;2022-11-20T05:59:40;5.28;;;2.60;;
66567;SDS011;53422;49.296;6.900;2022-11-20T06:02:06;6.00;;;2.80;;
66567;SDS011;53422;49.296;6.900;2022-11-20T06:04:31;4.75;;;2.35;;
66567;SDS011;53422;49.296;6.900;2022-11-20T06:06:57;9.57;;;2.80;;
66567;SDS011;53422;49.296;6.900;2022-11-20T06:09:22;7.47;;;2.60;;
66567;SDS011;53422;49.296;6.900;2022-11-20T06:11:48;6.43;;;2.30;;
66567;SDS011;53422;49.296;6.900;2022-11-20T06:14:13;6.82;;;3.03;;
66567;SDS011;53422;49.296;6.900;2022-11-20T06:16:39;4.78;;;2.45;;
66567;SDS011;53422;49.296;6.900;2022-11-20T06:19:04;6.10;;;2.58;;
66567;SDS011;53422;49.296;6.900;2022-11-20T06:21:30;5.95;;;3.00;;
66567;SDS011;53422;49.296;6.900;2022-11-20T06:23:55;4.78;;;2.65;;
66567;SDS011;53422;49.296;6.900;2022-11-20T06:26:22;5.40;;;2.33;;
66567;SDS011;53422;49.296;6.900;2022-11-20T06:28:49;5.70;;;2.85;;
66567;SDS011;53422;49.296;6.900;2022-11-20T06:31:17;7.00;;;2.75;;
66567;SDS011;53422;49.296;6.900;2022-11-20T06:33:44;4.85;;;2.47;;
66567;SDS011;53422;49.296;6.900;2022-11-20T06:36:11;5.05;;;2.72;;
66567;SDS011;53422;49.296;6.900;2022-11-20T06:38:38;6.13;;;2.15;;
66567;SDS011;53422;49.296;6.900;2022-11-20T06:41:09;8.73;;;2.72;;
66567;SDS011;53422;49.296;6.900;2022-11-20T06:43:37;5.18;;;2.30;;
66567;SDS011;53422;49.296;6.900;2022-11-20T06:46:03;4.80;;;2.33;;
66567;SDS011;53422;49.296;6.900;2022-11-20T06:48:28;6.45;;;2.92;;
66567;SDS011;53422;49.296;6.900;2022-11-20T06:50:55;4.03;;;1.83;;
66567;SDS011;53422;49.296;6.900;2022-11-20T06:53:21;3.70;;;2.00;;
66567;SDS011;53422;49.296;6.900;2022-11-20T06:55:47;7.32;;;2.97;;
66567;SDS011;53422;49.296;6.900;2022-11-20T06:58:14;7.15;;;2.53;;
66567;SDS011;53422;49.296;6.900;2022-11-20T07:00:40;5.30;;;1.98;;
66567;SDS011;53422;49.296;6.900;2022-11-20T07:03:06;3.80;;;1.95;;
66567;SDS011;53422;49.296;6.900;2022-11-20T07:05:33;4.65;;;2.40;;
66567;SDS011;53422;49.296;6.900;2022-11-20T07:07:59;5.43;;;2.03;;
66567;SDS011;53422;49.296;6.900;2022-11-20T07:10:25;5.28;;;2.17;;
66567;SDS011;53422;49.296;6.900;2022-11-20T07:12:51;4.55;;;2.08;;
66567;SDS011;53422;49.296;6.900;2022-11-20T07:15:18;3.70;;;1.95;;
66567;SDS011;53422;49.296;6.900;2022-11-20T07:17:45;3.97;;;1.60;;
66567;SDS011;53422;49.296;6.900;2022-11-20T07:20:11;4.38;;;1.95;;
66567;SDS011;53422;49.296;6.900;2022-11-20T07:22:37;3.85;;;2.20;;
66567;SDS011;53422;49.296;6.900;2022-11-20T07:25:02;6.13;;;2.53;;
66567;SDS011;53422;49.296;6.900;2022-11-20T07:27:28;5.35;;;2.40;;
66567;SDS011;53422;49.296;6.900;2022-11-20T07:29:54;4.22;;;1.90;;
66567;SDS011;53422;49.296;6.900;2022-11-20T07:32:20;4.18;;;1.83;;
66567;SDS011;53422;49.296;6.900;2022-11-20T07:34:46;4.10;;;1.95;;
66567;SDS011;53422;49.296;6.900;2022-11-20T07:37:12;5.38;;;2.65;;
66567;SDS011;53422;49.296;6.900;2022-11-20T07:39:37;4.18;;;2.47;;
66567;SDS011;53422;49.296;6.900;2022-11-20T07:42:03;6.25;;;2.22;;
66567;SDS011;53422;49.296;6.900;2022-11-20T07:44:30;4.82;;;2.33;;
66567;SDS011;53422;49.296;6.900;2022-11-20T07:46:55;4.97;;;2.28;;
66567;SDS011;53422;49.296;6.900;2022-11-20T07:49:21;5.40;;;2.53;;
66567;SDS011;53422;49.296;6.900;2022-11-20T07:51:47;4.03;;;2.60;;
66567;SDS011;53422;49.296;6.900;2022-11-20T07:54:16;4.97;;;2.20;;
66567;SDS011;53422;49.296;6.900;2022-11-20T07:56:41;5.15;;;2.33;;
66567;SDS011;53422;49.296;6.900;2022-11-20T07:59:07;4.03;;;2.08;;
66567;SDS011;53422;49.296;6.900;2022-11-20T08:01:32;5.10;;;2.45;;
66567;SDS011;53422;49.296;6.900;2022-11-20T08:03:58;5.20;;;2.83;;
66567;SDS011;53422;49.296;6.900;2022-11-20T08:06:23;4.35;;;2.30;;
66567;SDS011;53422;49.296;6.900;2022-11-20T08:08:49;4.85;;;2.10;;
66567;SDS011;53422;49.296;6.900;2022-11-20T08:11:15;6.32;;;2.30;;
66567;SDS011;53422;49.296;6.900;2022-11-20T08:13:59;4.45;;;2.10;;
66567;SDS011;53422;49.296;6.900;2022-11-20T08:16:41;3.88;;;2.28;;
66567;SDS011;53422;49.296;6.900;2022-11-20T08:19:12;4.35;;;1.80;;
66567;SDS011;53422;49.296;6.900;2022-11-20T08:21:39;2.75;;;1.33;;
66567;SDS011;53422;49.296;6.900;2022-11-20T08:24:05;4.45;;;2.15;;
66567;SDS011;53422;49.296;6.900;2022-11-20T08:26:31;7.93;;;2.55;;
66567;SDS011;53422;49.296;6.900;2022-11-20T08:28:57;5.40;;;2.35;;
66567;SDS011;53422;49.296;6.900;2022-11-20T08:31:24;5.43;;;2.20;;
66567;SDS011;53422;49.296;6.900;2022-11-20T08:33:51;5.70;;;2.30;;
66567;SDS011;53422;49.296;6.900;2022-11-20T08:36:17;5.15;;;2.35;;
66567;SDS011;53422;49.296;6.900;2022-11-20T08:38:47;4.32;;;2.42;;
66567;SDS011;53422;49.296;6.900;2022-11-20T08:41:13;5.20;;;2.10;;
66567;SDS011;53422;49.296;6.900;2022-11-20T08:43:48;5.22;;;1.95;;
66567;SDS011;53422;49.296;6.900;2022-11-20T08:46:15;4.65;;;2.30;;
66567;SDS011;53422;49.296;6.900;2022-11-20T08:48:41;4.10;;;2.33;;
66567;SDS011;53422;49.296;6.900;2022-11-20T08:51:06;8.27;;;2.83;;
66567;SDS011;53422;49.296;6.900;2022-11-20T08:53:32;5.38;;;1.90;;
66567;SDS011;53422;49.296;6.900;2022-11-20T08:55:57;5.20;;;2.45;;
66567;SDS011;53422;49.296;6.900;2022-11-20T08:58:23;6.07;;;2.50;;
66567;SDS011;53422;49.296;6.900;2022-11-20T09:00:49;5.72;;;2.17;;
66567;SDS011;53422;49.296;6.900;2022-11-20T09:03:15;4.78;;;2.40;;
66567;SDS011;53422;49.296;6.900;2022-11-20T09:05:41;4.63;;;2.30;;
66567;SDS011;53422;49.296;6.900;2022-11-20T09:08:07;5.13;;;2.47;;
66567;SDS011;53422;49.296;6.900;2022-11-20T09:10:33;7.47;;;2.45;;
66567;SDS011;53422;49.296;6.900;2022-11-20T09:12:59;8.10;;;4.28;;
66567;SDS011;53422;49.296;6.900;2022-11-20T09:15:24;6.35;;;2.72;;
66567;SDS011;53422;49.296;6.900;2022-11-20T09:17:54;5.68;;;2.17;;
66567;SDS011;53422;49.296;6.900;2022-11-20T09:20:21;8.07;;;2.70;;
66567;SDS011;53422;49.296;6.900;2022-11-20T09:22:47;6.68;;;2.60;;
66567;SDS011;53422;49.296;6.900;2022-11-20T09:25:13;8.38;;;3.25;;
66567;SDS011;53422;49.296;6.900;2022-11-20T09:27:39;7.40;;;2.53;;
66567;SDS011;53422;49.296;6.900;2022-11-20T09:30:06;6.28;;;2.85;;
66567;SDS011;53422;49.296;6.900;2022-11-20T09:32:32;4.80;;;2.20;;
66567;SDS011;53422;49.296;6.900;2022-11-20T09:34:58;4.97;;;2.50;;
66567;SDS011;53422;49.296;6.900;2022-11-20T09:37:24;7.50;;;2.55;;
66567;SDS011;53422;49.296;6.900;2022-11-20T09:39:49;5.97;;;2.60;;
66567;SDS011;53422;49.296;6.900;2022-11-20T09:47:58;5.82;;;2.75;;
66567;SDS011;53422;49.296;6.900;2022-11-20T09:50:56;5.38;;;2.17;;
66567;SDS011;53422;49.296;6.900;2022-11-20T09:56:40;5.65;;;2.28;;
66567;SDS011;53422;49.296;6.900;2022-11-20T09:59:15;6.07;;;2.63;;
66567;SDS011;53422;49.296;6.900;2022-11-20T10:01:55;9.05;;;2.47;;
66567;SDS011;53422;49.296;6.900;2022-11-20T10:04:22;7.35;;;3.15;;
66567;SDS011;53422;49.296;6.900;2022-11-20T10:09:53;13.35;;;3.13;;
66567;SDS011;53422;49.296;6.900;2022-11-20T10:12:29;9.70;;;2.92;;
66567;SDS011;53422;49.296;6.900;2022-11-20T10:20:50;4.63;;;2.22;;
66567;SDS011;53422;49.296;6.900;2022-11-20T10:29:27;3.72;;;1.65;;
66567;SDS011;53422;49.296;6.900;2022-11-20T10:32:02;4.68;;;2.40;;
66567;SDS011;53422;49.296;6.900;2022-11-20T10:34:43;4.68;;;2.45;;
66567;SDS011;53422;49.296;6.900;2022-11-20T10:37:13;7.53;;;2.58;;
66567;SDS011;53422;49.296;6.900;2022-11-20T10:40:00;6.07;;;2.60;;
66567;SDS011;53422;49.296;6.900;2022-11-20T10:42:31;4.30;;;2.35;;
66567;SDS011;53422;49.296;6.900;2022-11-20T10:45:13;3.35;;;1.50;;
66567;SDS011;53422;49.296;6.900;2022-11-20T10:47:45;4.18;;;2.10;;
66567;SDS011;53422;49.296;6.900;2022-11-20T10:50:11;7.55;;;2.65;;
66567;SDS011;53422;49.296;6.900;2022-11-20T10:55:40;4.80;;;1.80;;
66567;SDS011;53422;49.296;6.900;2022-11-20T11:01:14;4.50;;;2.28;;
66567;SDS011;53422;49.296;6.900;2022-11-20T11:03:48;4.13;;;1.90;;
66567;SDS011;53422;49.296;6.900;2022-11-20T11:06:29;3.13;;;1.70;;
66567;SDS011;53422;49.296;6.900;2022-11-20T11:09:02;4.63;;;1.55;;
66567;SDS011;53422;49.296;6.900;2022-11-20T11:11:34;5.85;;;2.33;;
66567;SDS011;53422;49.296;6.900;2022-11-20T11:14:07;3.55;;;1.52;;
66567;SDS011;53422;49.296;6.900;2022-11-20T11:16:34;2.95;;;1.50;;
66567;SDS011;53422;49.296;6.900;2022-11-20T11:19:12;6.03;;;2.20;;
66567;SDS011;53422;49.296;6.900;2022-11-20T11:21:38;3.08;;;1.35;;
66567;SDS011;53422;49.296;6.900;2022-11-20T11:24:28;4.18;;;1.90;;
66567;SDS011;53422;49.296;6.900;2022-11-20T11:26:56;3.95;;;1.55;;
66567;SDS011;53422;49.296;6.900;2022-11-20T11:29:24;6.57;;;2.97;;
66567;SDS011;53422;49.296;6.900;2022-11-20T11:32:02;4.88;;;2.10;;
66567;SDS011;53422;49.296;6.900;2022-11-20T11:34:38;4.05;;;1.52;;
66567;SDS011;53422;49.296;6.900;2022-11-20T11:37:04;3.65;;;1.17;;
66567;SDS011;53422;49.296;6.900;2022-11-20T11:39:35;7.45;;;1.35;;
66567;SDS011;53422;49.296;6.900;2022-11-20T11:42:07;1.73;;;1.15;;
66567;SDS011;53422;49.296;6.900;2022-11-20T11:44:37;5.07;;;1.45;;
66567;SDS011;53422;49.296;6.900;2022-11-20T11:52:41;1.80;;;0.70;;
66567;SDS011;53422;49.296;6.900;2022-11-20T11:55:15;1.83;;;1.02;;
66567;SDS011;53422;49.296;6.900;2022-11-20T12:00:23;3.10;;;1.33;;
66567;SDS011;53422;49.296;6.900;2022-11-20T12:03:12;3.72;;;1.10;;
66567;SDS011;53422;49.296;6.900;2022-11-20T12:05:40;2.17;;;0.93;;
66567;SDS011;53422;49.296;6.900;2022-11-20T12:08:24;2.75;;;0.90;;
66567;SDS011;53422;49.296;6.900;2022-11-20T12:16:04;6.43;;;0.80;;
66567;SDS011;53422;49.296;6.900;2022-11-20T12:18:33;1.13;;;0.60;;
66567;SDS011;53422;49.296;6.900;2022-11-20T12:23:36;1.85;;;0.85;;
66567;SDS011;53422;49.296;6.900;2022-11-20T12:29:06;2.50;;;0.70;;
66567;SDS011;53422;49.296;6.900;2022-11-20T12:37:09;1.65;;;0.82;;
66567;SDS011;53422;49.296;6.900;2022-11-20T12:39:50;2.22;;;0.90;;
66567;SDS011;53422;49.296;6.900;2022-11-20T12:48:30;2.22;;;0.93;;
66567;SDS011;53422;49.296;6.900;2022-11-20T13:00:02;2.47;;;1.17;;
66567;SDS011;53422;49.296;6.900;2022-11-20T13:02:57;1.80;;;0.82;;
66567;SDS011;53422;49.296;6.900;2022-11-20T13:05:54;0.70;;;0.52;;
66567;SDS011;53422;49.296;6.900;2022-11-20T13:08:25;1.40;;;0.65;;
66567;SDS011;53422;49.296;6.900;2022-11-20T13:16:33;3.17;;;0.98;;
66567;SDS011;53422;49.296;6.900;2022-11-20T13:19:04;0.98;;;0.70;;
66567;SDS011;53422;49.296;6.900;2022-11-20T13:21:38;4.10;;;0.68;;
66567;SDS011;53422;49.296;6.900;2022-11-20T13:24:06;2.03;;;0.73;;
66567;SDS011;53422;49.296;6.900;2022-11-20T13:26:44;3.58;;;0.60;;
66567;SDS011;53422;49.296;6.900;2022-11-20T13:29:18;2.20;;;0.55;;
66567;SDS011;53422;49.296;6.900;2022-11-20T13:31:47;1.50;;;0.73;;
66567;SDS011;53422;49.296;6.900;2022-11-20T13:34:23;6.15;;;0.70;;
66567;SDS011;53422;49.296;6.900;2022-11-20T13:36:52;1.67;;;0.52;;
66567;SDS011;53422;49.296;6.900;2022-11-20T13:39:29;2.30;;;0.60;;
66567;SDS011;53422;49.296;6.900;2022-11-20T13:42:00;1.83;;;0.68;;
66567;SDS011;53422;49.296;6.900;2022-11-20T13:45:07;7.72;;;3.17;;
66567;SDS011;53422;49.296;6.900;2022-11-20T13:48:20;4.03;;;1.70;;
66567;SDS011;53422;49.296;6.900;2022-11-20T13:53:33;2.78;;;1.02;;
66567;SDS011;53422;49.296;6.900;2022-11-20T13:56:21;2.15;;;1.20;;
66567;SDS011;53422;49.296;6.900;2022-11-20T13:59:14;4.20;;;1.08;;
66567;SDS011;53422;49.296;6.900;2022-11-20T14:01:56;4.25;;;1.23;;
66567;SDS011;53422;49.296;6.900;2022-11-20T14:04:43;3.03;;;1.88;;
66567;SDS011;53422;49.296;6.900;2022-11-20T14:07:10;2.35;;;1.00;;
66567;SDS011;53422;49.296;6.900;2022-11-20T14:09:36;3.63;;;1.10;;
66567;SDS011;53422;49.296;6.900;2022-11-20T14:12:02;5.13;;;1.17;;
66567;SDS011;53422;49.296;6.900;2022-11-20T14:14:29;2.65;;;1.05;;
66567;SDS011;53422;49.296;6.900;2022-11-20T14:17:05;4.75;;;0.98;;
66567;SDS011;53422;49.296;6.900;2022-11-20T14:19:32;3.08;;;1.02;;
66567;SDS011;53422;49.296;6.900;2022-11-20T14:27:37;2.40;;;0.85;;
66567;SDS011;53422;49.296;6.900;2022-11-20T14:32:41;2.30;;;0.82;;
66567;SDS011;53422;49.296;6.900;2022-11-20T14:35:08;2.33;;;0.68;;
66567;SDS011;53422;49.296;6.900;2022-11-20T14:37:38;2.05;;;0.88;;
66567;SDS011;53422;49.296;6.900;2022-11-20T14:40:21;1.77;;;0.65;;
66567;SDS011;53422;49.296;6.900;2022-11-20T14:42:47;4.00;;;0.52;;
66567;SDS011;53422;49.296;6.900;2022-11-20T14:45:13;2.13;;;0.93;;
66567;SDS011;53422;49.296;6.900;2022-11-20T14:47:39;1.75;;;0.63;;
66567;SDS011;53422;49.296;6.900;2022-11-20T14:50:12;4.15;;;0.73;;
66567;SDS011;53422;49.296;6.900;2022-11-20T14:52:49;0.77;;;0.60;;
66567;SDS011;53422;49.296;6.900;2022-11-20T14:55:28;1.13;;;0.63;;
66567;SDS011;53422;49.296;6.900;2022-11-20T14:57:57;2.17;;;0.75;;
66567;SDS011;53422;49.296;6.900;2022-11-20T15:00:29;2.85;;;0.63;;
66567;SDS011;53422;49.296;6.900;2022-11-20T15:02:57;2.88;;;0.90;;
66567;SDS011;53422;49.296;6.900;2022-11-20T15:05:24;3.95;;;1.27;;
66567;SDS011;53422;49.296;6.900;2022-11-20T15:08:10;2.92;;;1.15;;
66567;SDS011;53422;49.296;6.900;2022-11-20T15:10:36;2.50;;;0.88;;
66567;SDS011;53422;49.296;6.900;2022-11-20T15:13:04;3.65;;;0.82;;
66567;SDS011;53422;49.296;6.900;2022-11-20T15:18:11;4.68;;;1.50;;
66567;SDS011;53422;49.296;6.900;2022-11-20T15:20:38;1.23;;;0.73;;
66567;SDS011;53422;49.296;6.900;2022-11-20T15:23:10;4.30;;;1.30;;
66567;SDS011;53422;49.296;6.900;2022-11-20T15:25:37;2.50;;;0.93;;
66567;SDS011;53422;49.296;6.900;2022-11-20T15:28:04;3.58;;;1.42;;
66567;SDS011;53422;49.296;6.900;2022-11-20T15:30:40;2.72;;;1.00;;
66567;SDS011;53422;49.296;6.900;2022-11-20T15:33:07;7.97;;;1.15;;
66567;SDS011;53422;49.296;6.900;2022-11-20T15:35:34;1.27;;;0.70;;
66567;SDS011;53422;49.296;6.900;2022-11-20T15:38:00;4.60;;;0.93;;
66567;SDS011;53422;49.296;6.900;2022-11-20T15:40:25;2.33;;;1.20;;
66567;SDS011;53422;49.296;6.900;2022-11-20T15:42:51;4.55;;;1.13;;
66567;SDS011;53422;49.296;6.900;2022-11-20T15:45:30;3.08;;;0.85;;
66567;SDS011;53422;49.296;6.900;2022-11-20T15:48:03;2.80;;;1.05;;
66567;SDS011;53422;49.296;6.900;2022-11-20T15:50:34;2.83;;;0.52;;
66567;SDS011;53422;49.296;6.900;2022-11-20T15:53:02;3.72;;;1.20;;
66567;SDS011;53422;49.296;6.900;2022-11-20T15:55:28;3.28;;;1.40;;
66567;SDS011;53422;49.296;6.900;2022-11-20T15:57:53;2.80;;;1.02;;
66567;SDS011;53422;49.296;6.900;2022-11-20T16:00:19;3.40;;;1.20;;
66567;SDS011;53422;49.296;6.900;2022-11-20T16:02:45;3.75;;;1.33;;
66567;SDS011;53422;49.296;6.900;2022-11-20T16:05:11;4.10;;;1.10;;
66567;SDS011;53422;49.296;6.900;2022-11-20T16:07:37;4.07;;;0.95;;
66567;SDS011;53422;49.296;6.900;2022-11-20T16:10:03;2.03;;;0.88;;
66567;SDS011;53422;49.296;6.900;2022-11-20T16:12:29;3.97;;;0.90;;
66567;SDS011;53422;49.296;6.900;2022-11-20T16:15:13;2.53;;;1.15;;
66567;SDS011;53422;49.296;6.900;2022-11-20T16:17:57;5.35;;;1.77;;
66567;SDS011;53422;49.296;6.900;2022-11-20T16:20:22;3.83;;;1.38;;
66567;SDS011;53422;49.296;6.900;2022-11-20T16:22:48;3.72;;;2.22;;
66567;SDS011;53422;49.296;6.900;2022-11-20T16:25:14;4.60;;;2.00;;
66567;SDS011;53422;49.296;6.900;2022-11-20T16:27:40;5.63;;;2.10;;
66567;SDS011;53422;49.296;6.900;2022-11-20T16:30:06;4.28;;;1.73;;
66567;SDS011;53422;49.296;6.900;2022-11-20T16:32:32;5.78;;;1.50;;
66567;SDS011;53422;49.296;6.900;2022-11-20T16:34:58;3.88;;;1.38;;
66567;SDS011;53422;49.296;6.900;2022-11-20T16:37:23;2.90;;;1.40;;
66567;SDS011;53422;49.296;6.900;2022-11-20T16:39:49;2.05;;;1.42;;
66567;SDS011;53422;49.296;6.900;2022-11-20T16:42:14;5.20;;;1.05;;
66567;SDS011;53422;49.296;6.900;2022-11-20T16:44:40;2.63;;;1.15;;